createdAt,value
2018-06-17T10:03:44.107Z,23.80
2018-06-17T10:06:12.554Z,23.90
2018-06-17T10:08:41.033Z,23.90
2018-06-17T10:11:10.711Z,24.00
2018-06-17T10:13:41.631Z,24.00
2018-06-17T10:16:10.458Z,23.90
2018-06-17T10:18:39.023Z,23.70
2018-06-17T10:21:07.597Z,23.50
2018-06-17T10:23:36.529Z,23.50
2018-06-17T10:26:05.746Z,23.60
2018-06-17T10:28:34.898Z,23.70
2018-06-17T10:31:04.726Z,23.80
2018-06-17T10:33:33.483Z,23.80
2018-06-17T10:36:02.130Z,23.80
2018-06-17T10:38:30.606Z,24.10
2018-06-17T10:40:59.091Z,24.30
2018-06-17T10:43:29.274Z,24.50
2018-06-17T10:45:58.743Z,24.80
2018-06-17T10:48:27.330Z,25.10
2018-06-17T10:50:55.826Z,25.30
2018-06-17T10:53:24.318Z,25.50
2018-06-17T10:55:53.007Z,25.70
2018-06-17T10:58:21.375Z,25.90
2018-06-17T11:00:49.959Z,26.00
2018-06-17T11:03:18.447Z,26.20
2018-06-17T11:05:46.976Z,26.30
2018-06-17T11:08:15.516Z,26.10
2018-06-17T11:10:43.975Z,26.20
2018-06-17T11:13:12.496Z,26.30
2018-06-17T11:15:40.970Z,26.50
2018-06-17T11:18:09.460Z,26.60
2018-06-17T11:20:37.982Z,26.80
2018-06-17T11:23:06.543Z,26.90
2018-06-17T11:25:35.146Z,27.20
2018-06-17T11:28:03.838Z,27.40
2018-06-17T11:30:32.368Z,27.60
2018-06-17T11:33:00.899Z,27.50
2018-06-17T11:35:29.631Z,27.70
2018-06-17T11:37:58.127Z,27.70
2018-06-17T11:40:26.629Z,27.80
2018-06-17T11:42:55.199Z,27.90
2018-06-17T11:45:23.684Z,28.10
2018-06-17T11:47:52.449Z,28.00
2018-06-17T11:50:20.952Z,27.80
2018-06-17T11:52:49.461Z,27.40
2018-06-17T11:55:18.050Z,27.40
2018-06-17T11:57:46.582Z,27.40
2018-06-17T12:00:15.067Z,27.60
2018-06-17T12:02:43.585Z,27.80
2018-06-17T12:05:12.538Z,27.50
2018-06-17T12:07:41.281Z,27.50
2018-06-17T12:10:09.820Z,27.60
2018-06-17T12:12:38.464Z,27.80
2018-06-17T12:15:07.005Z,27.90
2018-06-17T12:17:35.620Z,27.90
2018-06-17T12:20:04.235Z,27.80
2018-06-17T12:22:32.828Z,27.90
2018-06-17T12:25:01.524Z,28.10
2018-06-17T12:27:30.057Z,28.20
2018-06-17T12:29:58.691Z,27.70
2018-06-17T12:32:27.439Z,27.70
2018-06-17T12:34:56.006Z,27.70
2018-06-17T12:37:24.663Z,27.90
2018-06-17T12:39:53.571Z,28.10
2018-06-17T12:42:22.092Z,28.30
2018-06-17T12:44:50.574Z,28.10
2018-06-17T12:47:20.327Z,28.00
2018-06-17T12:49:48.860Z,28.00
2018-06-17T12:52:17.407Z,28.10
2018-06-17T12:54:45.946Z,28.20
2018-06-17T12:57:14.479Z,28.20
2018-06-17T12:59:42.954Z,28.30
2018-06-17T13:02:11.434Z,28.50
2018-06-17T13:04:40.010Z,28.90
2018-06-17T13:07:08.434Z,29.10
2018-06-17T13:09:36.907Z,29.20
2018-06-17T13:12:05.430Z,29.10
2018-06-17T13:14:33.887Z,29.10
2018-06-17T13:17:02.400Z,29.30
2018-06-17T13:19:30.925Z,29.10
2018-06-17T13:21:59.462Z,28.80
2018-06-17T13:24:28.006Z,28.50
2018-06-17T13:26:56.533Z,28.10
2018-06-17T13:29:25.033Z,28.30
2018-06-17T13:31:53.539Z,28.90
2018-06-17T13:34:22.012Z,29.10
2018-06-17T13:36:50.591Z,29.20
2018-06-17T13:39:19.060Z,29.10
2018-06-17T13:41:47.545Z,29.30
2018-06-17T13:44:16.090Z,29.30
2018-06-17T13:46:45.304Z,29.60
2018-06-17T13:49:13.771Z,29.70
2018-06-17T13:51:42.997Z,29.50
2018-06-17T13:54:11.651Z,29.60
2018-06-17T13:56:40.397Z,29.30
2018-06-17T13:59:09.068Z,28.30
2018-06-17T14:01:37.686Z,28.40
2018-06-17T14:04:06.494Z,28.70
2018-06-17T14:06:35.388Z,28.90
2018-06-17T14:09:06.305Z,29.20
2018-06-17T14:11:34.930Z,28.90
2018-06-17T14:14:03.655Z,28.30
2018-06-17T14:16:32.280Z,28.40
2018-06-17T14:19:00.974Z,27.80
2018-06-17T14:21:29.843Z,27.40
2018-06-17T14:23:58.347Z,27.40
2018-06-17T14:26:26.890Z,27.80
2018-06-17T14:28:55.435Z,28.20
2018-06-17T14:31:24.140Z,28.70
2018-06-17T14:33:52.516Z,29.00
2018-06-17T14:36:21.139Z,29.70
2018-06-17T14:38:49.672Z,29.80
2018-06-17T14:41:19.105Z,30.10
2018-06-17T14:43:54.236Z,30.30
2018-06-17T14:46:29.589Z,30.80
2018-06-17T14:49:05.103Z,30.80
2018-06-17T14:51:40.512Z,30.40
2018-06-17T14:54:09.117Z,30.40
2018-06-17T14:56:37.597Z,30.00
2018-06-17T14:59:06.331Z,30.00
2018-06-17T15:01:35.019Z,29.70
2018-06-17T15:04:03.666Z,29.10
2018-06-17T15:06:32.353Z,29.60
2018-06-17T15:09:01.877Z,30.60
2018-06-17T15:11:30.567Z,31.10
2018-06-17T15:13:59.376Z,31.90
2018-06-17T15:16:28.043Z,33.00
2018-06-17T15:18:57.208Z,33.20
2018-06-17T15:21:26.227Z,33.10
2018-06-17T15:23:55.154Z,33.60
2018-06-17T15:26:24.088Z,34.50
2018-06-17T15:28:53.484Z,35.50
2018-06-17T15:31:27.322Z,36.50
2018-06-17T15:34:01.548Z,37.60
2018-06-17T15:36:35.489Z,38.40
2018-06-17T15:39:10.590Z,39.10
2018-06-17T15:41:39.647Z,39.20
2018-06-17T15:44:08.335Z,39.20
2018-06-17T15:46:37.469Z,39.30
2018-06-17T15:49:06.704Z,38.70
2018-06-17T15:51:35.717Z,38.30
2018-06-17T15:54:04.850Z,38.00
2018-06-17T15:56:33.761Z,37.90
2018-06-17T15:59:02.568Z,37.90
2018-06-17T16:01:31.859Z,36.70
2018-06-17T16:04:01.739Z,35.00
2018-06-17T16:06:31.937Z,33.90
2018-06-17T16:09:00.686Z,33.60
2018-06-17T16:11:29.708Z,33.10
2018-06-17T16:14:03.998Z,32.10
2018-06-17T16:16:38.230Z,30.70
2018-06-17T16:19:12.966Z,29.70
2018-06-17T16:21:44.268Z,29.00
2018-06-17T16:24:12.978Z,28.60
2018-06-17T16:26:42.155Z,28.00
2018-06-17T16:29:10.814Z,27.10
2018-06-17T16:31:39.812Z,26.20
2018-06-17T16:34:08.593Z,25.40
2018-06-17T16:36:37.517Z,24.90
2018-06-17T16:39:09.039Z,24.60
2018-06-17T16:41:38.234Z,24.20
2018-06-17T16:44:09.207Z,24.00
2018-06-17T16:46:38.693Z,23.80
2018-06-17T16:49:08.096Z,23.80
2018-06-17T16:51:42.325Z,23.70
2018-06-17T16:54:16.668Z,23.60
2018-06-17T16:56:50.612Z,23.60
2018-06-17T16:59:25.193Z,23.50
2018-06-17T17:01:53.943Z,23.50
2018-06-17T17:04:22.631Z,23.50
2018-06-17T17:06:51.344Z,23.60
2018-06-17T17:09:20.067Z,23.60
2018-06-17T17:11:48.559Z,23.60
2018-06-17T17:14:17.047Z,23.60
2018-06-17T17:16:45.667Z,23.60
2018-06-17T17:19:14.127Z,23.50
2018-06-17T17:21:42.652Z,23.40
2018-06-17T17:24:11.131Z,23.30
2018-06-17T17:26:39.632Z,23.30
2018-06-17T17:29:08.330Z,23.20
2018-06-17T17:31:41.963Z,23.10
2018-06-17T17:34:15.762Z,23.10
2018-06-17T17:36:49.630Z,23.10
2018-06-17T17:39:23.362Z,23.10
2018-06-17T17:41:51.886Z,23.20
2018-06-17T17:44:20.356Z,23.30
2018-06-17T17:46:54.164Z,23.40
2018-06-17T17:49:22.646Z,23.50
2018-06-17T17:51:51.166Z,23.60
2018-06-17T17:54:19.727Z,23.70
2018-06-17T17:56:48.167Z,23.60
2018-06-17T17:59:16.683Z,23.60
2018-06-17T18:01:45.276Z,23.50
2018-06-17T18:04:13.814Z,23.50
2018-06-17T18:06:42.291Z,23.40
2018-06-17T18:09:10.783Z,23.40
2018-06-17T18:11:39.283Z,23.30
2018-06-17T18:14:07.835Z,23.30
2018-06-17T18:16:36.292Z,23.20
2018-06-17T18:19:04.882Z,23.10
2018-06-17T18:21:33.402Z,23.10
2018-06-17T18:24:01.916Z,23.10
2018-06-17T18:26:35.824Z,23.10
2018-06-17T18:29:09.632Z,23.00
2018-06-17T18:31:43.290Z,22.90
2018-06-17T18:34:17.033Z,22.70
2018-06-17T18:36:45.546Z,22.40
2018-06-17T18:39:14.007Z,22.00
2018-06-17T18:41:42.506Z,21.70
2018-06-17T18:44:11.046Z,21.50
2018-06-17T18:46:40.049Z,21.20
2018-06-17T18:49:09.446Z,20.80
2018-06-17T18:51:39.032Z,20.40
2018-06-17T18:54:08.611Z,20.10
2018-06-17T18:56:38.029Z,19.70
2018-06-17T18:59:06.619Z,19.50
2018-06-17T19:01:35.374Z,19.30
2018-06-17T19:04:03.891Z,19.20
2018-06-17T19:06:32.441Z,19.10
2018-06-17T19:09:06.282Z,19.00
2018-06-17T19:11:40.156Z,18.90
2018-06-17T19:14:14.706Z,18.90
2018-06-17T19:16:49.181Z,18.90
2018-06-17T19:19:18.088Z,18.90
2018-06-17T19:21:46.686Z,19.00
2018-06-17T19:24:15.260Z,19.00
2018-06-17T19:29:12.227Z,19.00
2018-06-17T19:31:42.714Z,19.00
2018-06-17T19:34:11.255Z,18.90
2018-06-17T19:39:09.880Z,18.90
2018-06-17T19:41:39.272Z,18.90
2018-06-17T19:44:08.529Z,18.90
2018-06-17T19:46:37.253Z,18.90
2018-06-17T19:49:06.011Z,18.90
2018-06-17T19:51:39.838Z,18.80
2018-06-17T19:54:14.596Z,18.90
2018-06-17T19:56:48.297Z,19.00
2018-06-17T20:01:29.918Z,18.90
2018-06-17T20:03:58.679Z,18.70
2018-06-17T20:06:27.606Z,18.30
2018-06-17T20:08:56.046Z,18.10
2018-06-17T20:11:24.638Z,18.00
2018-06-17T20:13:53.114Z,17.90
2018-06-17T20:16:21.631Z,17.80
2018-06-17T20:18:50.124Z,17.70
2018-06-17T20:21:18.710Z,17.50
2018-06-17T20:23:47.371Z,17.40
2018-06-17T20:26:16.025Z,17.40
2018-06-17T20:28:44.754Z,17.40
2018-06-17T20:31:13.383Z,17.40
2018-06-17T20:33:47.236Z,17.40
2018-06-17T20:36:21.176Z,17.50
2018-06-17T20:38:55.090Z,17.40
2018-06-17T20:41:28.970Z,17.40
2018-06-17T20:43:57.530Z,17.40
2018-06-17T20:46:26.095Z,17.40
2018-06-17T20:48:54.747Z,17.40
2018-06-17T20:51:23.215Z,17.30
2018-06-17T20:53:51.721Z,17.30
2018-06-17T20:56:20.377Z,17.30
2018-06-17T20:58:48.946Z,17.30
2018-06-17T21:01:17.554Z,17.20
2018-06-17T21:03:46.027Z,17.20
2018-06-17T21:06:14.592Z,17.20
2018-06-17T21:08:43.095Z,17.20
2018-06-17T21:11:11.692Z,17.10
2018-06-17T21:13:40.226Z,17.20
2018-06-17T21:16:08.753Z,17.10
2018-06-17T21:18:42.831Z,17.00
2018-06-17T21:21:16.717Z,16.90
2018-06-17T21:23:50.553Z,16.80
2018-06-17T21:26:24.317Z,16.90
2018-06-17T21:28:52.831Z,17.00
2018-06-17T21:31:21.355Z,17.10
2018-06-17T21:33:50.060Z,17.20
2018-06-17T21:36:18.774Z,17.20
2018-06-17T21:38:47.272Z,17.20
2018-06-17T21:41:15.748Z,17.20
2018-06-17T21:43:44.248Z,17.20
2018-06-17T21:46:12.755Z,17.20
2018-06-17T21:48:41.275Z,17.10
2018-06-17T21:51:09.756Z,17.20
2018-06-17T21:53:38.290Z,17.30
2018-06-17T21:56:06.877Z,17.30
2018-06-17T21:58:40.749Z,17.30
2018-06-17T22:01:09.258Z,17.20
2018-06-17T22:03:37.762Z,17.20
2018-06-17T22:06:06.274Z,17.10
2018-06-17T22:08:40.051Z,17.10
2018-06-17T22:11:14.000Z,17.00
2018-06-17T22:13:47.982Z,17.00
2018-06-17T22:16:21.909Z,16.90
2018-06-17T22:18:51.434Z,16.90
2018-06-17T22:21:19.985Z,16.90
2018-06-17T22:23:48.528Z,16.90
2018-06-17T22:26:17.115Z,16.90
2018-06-17T22:28:45.758Z,17.00
2018-06-17T22:31:14.496Z,17.00
2018-06-17T22:33:43.067Z,17.00
2018-06-17T22:36:11.758Z,17.00
2018-06-17T22:38:40.250Z,17.00
2018-06-17T22:41:09.069Z,17.00
2018-06-17T22:48:33.901Z,17.00
2018-06-17T22:51:03.162Z,17.00
2018-06-17T22:53:42.975Z,16.90
2018-06-17T22:56:16.844Z,16.90
2018-06-17T22:58:50.640Z,16.90
2018-06-17T23:01:24.974Z,16.80
2018-06-17T23:03:58.800Z,16.80
2018-06-17T23:06:32.556Z,16.90
2018-06-17T23:09:06.347Z,16.90
2018-06-17T23:11:34.914Z,16.90
2018-06-17T23:14:03.410Z,16.80
2018-06-17T23:16:31.862Z,16.80
2018-06-17T23:19:00.368Z,16.80
2018-06-17T23:21:28.851Z,16.80
2018-06-17T23:23:57.342Z,16.90
2018-06-17T23:26:25.782Z,16.90
2018-06-17T23:28:54.416Z,16.90
2018-06-17T23:31:22.926Z,16.90
2018-06-17T23:33:51.369Z,16.90
2018-06-17T23:36:19.915Z,16.80
2018-06-17T23:38:48.400Z,16.80
2018-06-17T23:41:17.030Z,16.80
2018-06-17T23:43:47.067Z,16.80
2018-06-17T23:46:21.083Z,16.80
2018-06-17T23:48:54.812Z,16.70
2018-06-17T23:51:28.711Z,16.70
2018-06-17T23:54:02.324Z,16.70
2018-06-17T23:56:30.837Z,16.70
2018-06-17T23:58:59.322Z,16.60
